Time;durP1;ratioP1;P1;durP2;ratioP2;P2;SDS_P1;SDS_P2;PMS_P1;PMS_P2;Temp;Humidity;BMP_temperature;BMP_pressure;BME280_temperature;BME280_humidity;BME280_pressure;Samples;Min_cycle;Max_cycle;Signal;HPM_P1;HPM_P2
2021/06/29 00:01:07;;;;;;;3.38;2.30;;;;;;;20.73;61.44;98667.38;3588820;40;20093;-66
2021/06/29 00:03:35;;;;;;;2.20;2.00;;;;;;;20.84;61.54;98667.44;3588667;40;20048;-67
2021/06/29 00:06:03;;;;;;;2.65;2.35;;;;;;;20.77;61.59;98670.34;3587515;40;20325;-67
2021/06/29 00:08:32;;;;;;;2.67;1.80;;;;;;;20.79;61.42;98668.22;3587815;40;20049;-66
2021/06/29 00:11:21;;;;;;;2.60;2.30;;;;;;;20.78;61.42;98653.19;3588778;40;20059;-67
2021/06/29 00:13:48;;;;;;;3.67;2.20;;;;;;;20.81;61.55;98641.88;3588710;40;20059;-65
2021/06/29 00:16:16;;;;;;;3.30;2.15;;;;;;;20.77;61.68;98628.16;3588420;40;20056;-66
2021/06/29 00:18:44;;;;;;;3.20;2.38;;;;;;;20.82;61.67;98629.25;3588610;40;20059;-66
2021/06/29 00:21:12;;;;;;;4.57;2.20;;;;;;;20.75;61.96;98630.31;3588540;40;20098;-66
2021/06/29 00:23:41;;;;;;;3.22;2.60;;;;;;;20.76;61.82;98625.75;3588729;40;20401;-66
2021/06/29 00:26:10;;;;;;;3.53;2.70;;;;;;;20.79;61.88;98636.00;3588321;40;20044;-66
2021/06/29 00:28:38;;;;;;;3.33;2.30;;;;;;;20.71;62.02;98636.50;3588710;40;20354;-66
2021/06/29 00:31:07;;;;;;;3.42;2.05;;;;;;;20.71;61.86;98641.88;3588148;40;20059;-66
2021/06/29 00:33:35;;;;;;;2.65;2.45;;;;;;;20.67;62.19;98651.50;3588710;40;20052;-66
2021/06/29 00:36:03;;;;;;;2.60;2.40;;;;;;;20.67;62.40;98654.19;3588216;40;20075;-66
2021/06/29 00:38:31;;;;;;;2.47;2.28;;;;;;;20.56;62.75;98664.06;3587501;40;20393;-66
2021/06/29 00:41:01;;;;;;;2.28;2.13;;;;;;;20.50;62.46;98659.75;3588632;40;20381;-66
2021/06/29 00:43:29;;;;;;;2.83;2.17;;;;;;;20.50;62.59;98659.75;3587480;40;20103;-66
2021/06/29 00:45:57;;;;;;;3.88;2.25;;;;;;;20.33;63.18;98659.06;3588276;40;20085;-67
2021/06/29 00:48:25;;;;;;;2.88;2.55;;;;;;;20.33;63.25;98659.06;3588536;40;20041;-66
2021/06/29 00:50:52;;;;;;;2.33;2.10;;;;;;;20.32;63.52;98654.78;3588591;40;20064;-66
2021/06/29 00:53:20;;;;;;;2.53;2.30;;;;;;;20.23;64.04;98635.69;3588539;40;20084;-67
2021/06/29 00:55:48;;;;;;;2.13;1.92;;;;;;;20.14;64.24;98627.31;3588390;40;20088;-66
2021/06/29 00:58:18;;;;;;;3.38;2.53;;;;;;;20.12;64.36;98634.78;3588262;40;20053;-66
2021/06/29 01:00:46;;;;;;;2.75;2.38;;;;;;;20.05;64.57;98636.91;3588471;40;20080;-66
2021/06/29 01:03:14;;;;;;;2.00;1.90;;;;;;;20.11;64.43;98625.13;3588397;40;20044;-66
2021/06/29 01:05:42;;;;;;;2.40;2.20;;;;;;;20.15;64.61;98628.09;3588620;40;20024;-66
2021/06/29 01:08:10;;;;;;;3.72;2.50;;;;;;;20.16;64.71;98616.31;3587852;40;20085;-67
2021/06/29 01:10:38;;;;;;;2.60;2.40;;;;;;;20.14;64.77;98613.09;3588311;40;20045;-66
2021/06/29 01:13:05;;;;;;;2.95;2.65;;;;;;;20.19;64.60;98605.06;3588242;40;20045;-66
2021/06/29 01:15:34;;;;;;;3.38;2.53;;;;;;;20.09;64.77;98588.91;3588448;40;20044;-66
2021/06/29 01:18:03;;;;;;;2.60;2.38;;;;;;;20.12;64.96;98591.84;3586875;40;20071;-66
2021/06/29 01:20:32;;;;;;;3.42;2.60;;;;;;;20.12;64.88;98589.16;3588322;40;20076;-67
2021/06/29 01:23:04;;;;;;;2.35;2.15;;;;;;;20.14;65.08;98591.63;3588268;40;20056;-66
2021/06/29 01:25:33;;;;;;;2.70;2.42;;;;;;;20.12;65.14;98578.44;3588344;40;20044;-67
2021/06/29 01:28:15;;;;;;;2.67;2.47;;;;;;;20.14;64.97;98581.69;3587830;40;20053;-67
2021/06/29 01:33:24;;;;;;;2.65;2.15;;;;;;;20.07;65.33;98597.19;3587163;40;20061;-66
2021/06/29 01:35:53;;;;;;;3.22;2.30;;;;;;;20.06;65.55;98592.91;3587908;40;20070;-67
2021/06/29 01:38:21;;;;;;;2.75;2.47;;;;;;;20.06;65.01;98595.59;3588051;40;20092;-67
2021/06/29 01:40:51;;;;;;;2.92;2.60;;;;;;;20.02;65.53;98599.84;3588340;40;20048;-66
2021/06/29 01:43:21;;;;;;;3.45;2.58;;;;;;;20.03;65.43;98588.06;3588555;40;20084;-66
2021/06/29 01:45:50;;;;;;;3.47;3.17;;;;;;;20.07;65.57;98596.41;3589679;40;20060;-67
2021/06/29 01:48:21;;;;;;;2.70;2.50;;;;;;;19.99;65.50;98600.38;3588500;40;20331;-66
2021/06/29 01:50:49;;;;;;;3.00;2.50;;;;;;;19.91;65.61;98603.53;3589707;40;20413;-66
2021/06/29 01:53:19;;;;;;;5.32;2.90;;;;;;;19.82;66.33;98610.44;3589533;40;20048;-66
2021/06/29 01:55:47;;;;;;;3.03;2.40;;;;;;;19.87;66.25;98605.91;3589743;40;20076;-66
2021/06/29 01:58:21;;;;;;;2.53;2.33;;;;;;;19.89;66.40;98603.00;3589357;40;20053;-66
2021/06/29 02:00:49;;;;;;;2.90;2.70;;;;;;;19.89;66.25;98603.81;3589716;40;20080;-66
2021/06/29 02:03:16;;;;;;;2.65;2.45;;;;;;;19.92;66.19;98607.81;3589467;40;20053;-66
2021/06/29 02:05:44;;;;;;;3.20;2.70;;;;;;;19.97;65.86;98597.94;3589469;40;20049;-66
2021/06/29 02:08:12;;;;;;;3.63;2.65;;;;;;;19.96;66.00;98617.81;3589148;40;20076;-66
2021/06/29 02:10:41;;;;;;;5.20;2.88;;;;;;;20.02;65.87;98605.22;3589684;40;20056;-66
2021/06/29 02:13:09;;;;;;;2.85;2.65;;;;;;;20.02;65.50;98597.97;3589467;40;20314;-66
2021/06/29 02:15:37;;;;;;;2.63;2.40;;;;;;;19.94;65.69;98608.38;3589576;40;20482;-65
2021/06/29 02:18:05;;;;;;;3.85;2.92;;;;;;;19.92;66.34;98610.50;3588127;40;20064;-66
2021/06/29 02:20:33;;;;;;;2.92;2.60;;;;;;;19.93;66.10;98612.16;3589360;40;20055;-66
2021/06/29 02:23:00;;;;;;;4.70;2.80;;;;;;;19.96;66.03;98604.41;3589329;40;20052;-66
2021/06/29 02:25:28;;;;;;;6.13;4.07;;;;;;;19.90;66.52;98608.09;3589827;40;20100;-66
2021/06/29 02:27:58;;;;;;;2.92;2.70;;;;;;;19.93;66.22;98607.59;3589151;40;20129;-66
2021/06/29 02:30:25;;;;;;;3.60;3.30;;;;;;;19.95;65.90;98607.31;3589405;40;20064;-66
2021/06/29 02:32:53;;;;;;;4.63;2.95;;;;;;;19.92;65.91;98605.16;3589413;40;20368;-66
2021/06/29 02:35:21;;;;;;;3.05;2.75;;;;;;;19.88;66.00;98598.69;3588313;40;20052;-66
2021/06/29 02:37:48;;;;;;;3.08;2.80;;;;;;;19.93;66.49;98604.09;3589124;40;20283;-66
2021/06/29 02:40:17;;;;;;;3.28;2.40;;;;;;;19.98;65.84;98606.81;3589279;40;20044;-66
2021/06/29 02:42:44;;;;;;;3.30;2.25;;;;;;;19.91;66.27;98607.03;3589294;40;20088;-66
2021/06/29 02:45:17;;;;;;;5.55;2.50;;;;;;;19.86;66.16;98600.81;3589274;40;20052;-66
2021/06/29 02:47:46;;;;;;;2.83;2.55;;;;;;;19.88;66.46;98604.03;3590382;40;20397;-66
2021/06/29 02:50:14;;;;;;;5.75;5.20;;;;;;;19.90;66.48;98600.03;3594372;40;20444;-65
2021/06/29 02:52:43;;;;;;;3.47;2.90;;;;;;;19.90;66.46;98596.56;3593824;40;20317;-66
2021/06/29 02:55:13;;;;;;;4.55;4.13;;;;;;;19.96;65.94;98603.56;3594321;40;20449;-67
2021/06/29 02:57:42;;;;;;;4.22;3.05;;;;;;;19.97;65.99;98602.53;3595092;40;20032;-66
2021/06/29 03:00:13;;;;;;;3.50;3.20;;;;;;;20.00;65.77;98601.97;3595049;40;20048;-66
2021/06/29 03:02:42;;;;;;;4.65;2.95;;;;;;;19.89;65.97;98603.00;3591512;40;20068;-66
2021/06/29 03:05:11;;;;;;;3.60;3.28;;;;;;;19.84;66.19;98595.72;3589773;40;20037;-66
2021/06/29 03:07:38;;;;;;;3.83;3.33;;;;;;;19.85;66.31;98601.91;3588928;40;20053;-66
2021/06/29 03:10:08;;;;;;;4.03;3.30;;;;;;;19.85;66.11;98596.53;3589208;40;20040;-66
2021/06/29 03:12:36;;;;;;;2.42;2.22;;;;;;;19.85;66.24;98602.69;3589608;40;20085;-66
2021/06/29 03:15:05;;;;;;;3.40;2.58;;;;;;;19.85;66.32;98604.56;3589133;40;20052;-66
2021/06/29 03:17:33;;;;;;;3.22;2.88;;;;;;;19.89;66.12;98603.81;3588583;40;20049;-65
2021/06/29 03:20:03;;;;;;;3.67;2.75;;;;;;;19.85;66.19;98604.56;3588990;40;20053;-66
2021/06/29 03:22:31;;;;;;;3.13;2.78;;;;;;;19.91;66.55;98603.53;3588210;40;20340;-66
2021/06/29 03:24:59;;;;;;;3.40;3.10;;;;;;;19.95;65.77;98597.38;3589034;40;20060;-66
2021/06/29 03:27:27;;;;;;;4.00;2.53;;;;;;;20.01;65.75;98592.88;3588705;40;20051;-66
2021/06/29 03:29:55;;;;;;;3.30;2.97;;;;;;;20.01;65.81;98591.00;3588881;40;20366;-66
2021/06/29 03:32:22;;;;;;;3.38;2.90;;;;;;;19.96;65.55;98590.97;3588974;40;20044;-66
2021/06/29 03:34:50;;;;;;;3.92;2.67;;;;;;;20.00;65.53;98591.25;3588988;40;20118;-65
2021/06/29 03:37:19;;;;;;;3.45;2.53;;;;;;;19.96;65.64;98588.31;3588984;40;20025;-65
2021/06/29 03:39:47;;;;;;;5.28;2.75;;;;;;;19.91;65.42;98588.25;3589071;40;20045;-65
2021/06/29 03:42:15;;;;;;;4.38;2.70;;;;;;;19.90;66.13;98585.81;3588975;40;20314;-67
2021/06/29 03:44:42;;;;;;;4.47;3.10;;;;;;;19.82;66.34;98583.63;3589084;40;20048;-65
2021/06/29 03:47:14;;;;;;;3.95;2.55;;;;;;;19.74;66.66;98583.03;3587808;40;20118;-65
2021/06/29 03:49:42;;;;;;;5.30;2.78;;;;;;;19.70;66.78;98579.25;3588877;40;20092;-65
2021/06/29 03:52:10;;;;;;;6.00;2.85;;;;;;;19.64;66.93;98572.25;3588475;40;20052;-65
2021/06/29 03:54:39;;;;;;;3.50;3.20;;;;;;;19.48;67.58;98573.97;3589005;40;20361;-66
2021/06/29 03:57:07;;;;;;;3.50;3.17;;;;;;;19.36;68.19;98567.16;3588714;40;20092;-65
2021/06/29 03:59:35;;;;;;;4.18;3.58;;;;;;;19.36;68.36;98567.16;3589089;40;20298;-65
2021/06/29 04:02:03;;;;;;;4.40;4.00;;;;;;;19.39;68.32;98586.22;3589105;40;20445;-66
2021/06/29 04:04:31;;;;;;;4.05;2.97;;;;;;;19.49;68.08;98591.66;3587529;40;20036;-66
2021/06/29 04:07:01;;;;;;;4.07;2.97;;;;;;;19.63;67.81;98591.25;3588771;40;20338;-65
2021/06/29 04:09:29;;;;;;;5.38;3.28;;;;;;;19.72;67.28;98601.28;3587762;40;20055;-65
2021/06/29 04:11:58;;;;;;;3.67;2.95;;;;;;;19.73;67.58;98607.44;3588064;40;20059;-66
2021/06/29 04:14:25;;;;;;;4.10;3.70;;;;;;;19.75;67.23;98608.78;3588914;40;20052;-66
2021/06/29 04:16:53;;;;;;;4.45;3.50;;;;;;;19.69;67.35;98600.97;3588539;40;20052;-65
2021/06/29 04:19:21;;;;;;;7.38;3.50;;;;;;;19.74;67.62;98601.81;3588782;40;20044;-65
2021/06/29 04:21:49;;;;;;;3.40;2.92;;;;;;;19.79;67.35;98601.03;3588938;40;20052;-66
2021/06/29 04:24:16;;;;;;;4.78;3.20;;;;;;;19.82;67.44;98603.22;3588916;40;20387;-67
2021/06/29 04:26:44;;;;;;;4.18;2.88;;;;;;;19.89;67.00;98605.69;3588698;40;20076;-66
2021/06/29 04:29:13;;;;;;;4.47;3.95;;;;;;;19.87;67.38;98605.91;3588777;40;20045;-67
2021/06/29 04:31:41;;;;;;;5.53;4.95;;;;;;;19.89;67.17;98606.47;3587534;40;20433;-65
2021/06/29 04:34:09;;;;;;;3.40;3.13;;;;;;;19.89;67.13;98597.63;3587682;40;20115;-66
2021/06/29 04:36:37;;;;;;;3.83;2.90;;;;;;;19.94;66.85;98579.69;3587272;40;20068;-66
2021/06/29 04:39:05;;;;;;;4.30;3.90;;;;;;;19.96;66.81;98564.16;3588919;40;20056;-66
2021/06/29 04:41:34;;;;;;;3.45;3.15;;;;;;;19.94;66.93;98562.78;3588787;40;20055;-65
2021/06/29 04:44:01;;;;;;;3.40;3.10;;;;;;;20.00;66.60;98565.25;3588539;40;20051;-66
2021/06/29 04:46:30;;;;;;;3.28;2.70;;;;;;;20.13;66.43;98563.16;3588508;40;20066;-67
2021/06/29 04:48:59;;;;;;;6.22;5.50;;;;;;;20.23;65.98;98561.31;3587643;40;20056;-66
2021/06/29 04:51:27;;;;;;;4.80;3.30;;;;;;;20.19;66.09;98576.34;3588624;40;20060;-67
2021/06/29 04:53:54;;;;;;;5.97;3.70;;;;;;;20.22;66.03;98575.03;3588468;40;20056;-66
2021/06/29 04:56:22;;;;;;;3.60;2.90;;;;;;;20.20;66.24;98583.31;3588256;40;20052;-66
2021/06/29 04:58:52;;;;;;;3.50;3.20;;;;;;;20.18;66.07;98585.47;3588409;40;20349;-67
2021/06/29 05:01:21;;;;;;;6.63;4.20;;;;;;;20.21;66.35;98573.41;3588411;40;20064;-67
2021/06/29 05:03:51;;;;;;;3.38;3.00;;;;;;;20.24;66.01;98559.44;3587250;40;20045;-66
2021/06/29 05:06:19;;;;;;;3.60;2.83;;;;;;;20.24;66.03;98580.91;3588753;40;20417;-67
2021/06/29 05:08:47;;;;;;;3.60;3.15;;;;;;;20.16;66.22;98586.78;3587571;40;20025;-66
2021/06/29 05:11:15;;;;;;;4.38;3.13;;;;;;;20.13;66.37;98581.97;3588508;40;20056;-67
2021/06/29 05:13:43;;;;;;;3.33;3.03;;;;;;;20.22;66.38;98575.81;3587708;40;20025;-66
2021/06/29 05:16:11;;;;;;;3.70;3.15;;;;;;;20.26;65.87;98570.75;3590181;40;20476;-67
2021/06/29 05:18:38;;;;;;;5.75;3.25;;;;;;;20.29;66.09;98568.34;3592113;40;20103;-67
2021/06/29 05:21:08;;;;;;;3.40;3.10;;;;;;;20.35;66.06;98569.16;3591822;40;20048;-67
2021/06/29 05:23:36;;;;;;;7.07;3.30;;;;;;;20.41;65.58;98567.31;3591899;40;20070;-68
2021/06/29 05:26:03;;;;;;;7.90;3.20;;;;;;;20.42;65.68;98564.38;3591780;40;20058;-67
2021/06/29 05:28:31;;;;;;;5.97;2.80;;;;;;;20.46;65.45;98560.09;3592076;40;20051;-67
2021/06/29 05:30:59;;;;;;;3.55;3.22;;;;;;;20.53;65.48;98547.28;3591236;40;20048;-67
2021/06/29 05:33:27;;;;;;;3.03;2.75;;;;;;;20.56;65.14;98555.84;3591333;40;20032;-66
2021/06/29 05:35:55;;;;;;;5.82;3.50;;;;;;;20.54;64.87;98553.44;3592008;40;20040;-67
2021/06/29 05:38:24;;;;;;;4.78;3.13;;;;;;;20.65;65.08;98557.75;3591665;40;20068;-67
2021/06/29 05:40:52;;;;;;;4.07;3.63;;;;;;;20.71;64.78;98562.09;3589833;40;20044;-67
2021/06/29 05:43:19;;;;;;;4.10;2.90;;;;;;;20.76;64.83;98545.19;3590792;40;20048;-67
2021/06/29 05:45:47;;;;;;;5.47;3.35;;;;;;;20.73;64.87;98554.56;3590943;40;20408;-68
2021/06/29 05:48:18;;;;;;;5.68;4.10;;;;;;;20.76;64.79;98550.53;3629665;22;20102;-61
2021/06/29 05:50:46;;;;;;;3.17;2.90;;;;;;;20.78;64.51;98535.78;3599888;39;20091;-61
2021/06/29 05:53:15;;;;;;;3.60;3.30;;;;;;;20.83;64.49;98528.81;3599558;39;20085;-61
2021/06/29 05:55:44;;;;;;;4.43;3.33;;;;;;;20.79;64.54;98525.84;3599961;40;20080;-61
2021/06/29 05:58:15;;;;;;;5.82;3.45;;;;;;;20.89;64.62;98528.53;3599688;40;20052;-61
2021/06/29 06:00:43;;;;;;;5.53;3.33;;;;;;;20.98;63.97;98535.03;3598745;39;20084;-61
2021/06/29 06:03:11;;;;;;;5.07;3.13;;;;;;;21.02;63.97;98538.78;3599587;39;20043;-60
2021/06/29 06:05:38;;;;;;;7.53;3.50;;;;;;;21.09;63.68;98535.03;3599819;39;20389;-60
2021/06/29 06:08:06;;;;;;;2.97;2.72;;;;;;;21.13;63.43;98528.84;3599494;39;20047;-61
2021/06/29 06:10:34;;;;;;;5.07;3.40;;;;;;;21.15;63.48;98536.66;3599413;40;20047;-60
2021/06/29 06:13:03;;;;;;;3.45;2.90;;;;;;;21.24;63.22;98535.03;3599503;39;20044;-60
2021/06/29 06:15:31;;;;;;;3.58;3.28;;;;;;;21.34;63.47;98532.38;3599621;39;20055;-60
2021/06/29 06:18:02;;;;;;;4.60;3.42;;;;;;;21.44;62.75;98535.06;3598390;40;20032;-61
2021/06/29 06:20:30;;;;;;;4.00;3.60;;;;;;;21.56;62.52;98528.63;3599879;39;20435;-60
2021/06/29 06:22:58;;;;;;;4.47;3.05;;;;;;;21.57;62.37;98532.91;3599825;39;20076;-60
2021/06/29 06:25:26;;;;;;;3.70;2.70;;;;;;;21.45;62.41;98533.97;3599552;39;20338;-60
2021/06/29 06:27:53;;;;;;;4.80;2.85;;;;;;;21.47;62.27;98539.09;3598733;39;20329;-60
2021/06/29 06:30:23;;;;;;;3.20;2.90;;;;;;;21.39;62.30;98531.56;3599407;40;20055;-60
2021/06/29 06:32:51;;;;;;;5.18;3.00;;;;;;;21.52;62.23;98539.09;3599419;39;20095;-59
2021/06/29 06:35:19;;;;;;;5.60;3.30;;;;;;;21.57;62.20;98544.47;3599603;40;20097;-60
2021/06/29 06:37:47;;;;;;;3.03;2.72;;;;;;;21.60;61.73;98541.25;3599417;39;20043;-60
2021/06/29 06:40:15;;;;;;;3.65;2.83;;;;;;;21.57;61.69;98533.72;3598759;39;20048;-60
2021/06/29 06:42:46;;;;;;;5.10;3.05;;;;;;;21.64;61.64;98542.31;3599392;40;20063;-61
2021/06/29 06:45:15;;;;;;;5.22;3.00;;;;;;;21.69;61.68;98554.94;3599946;39;20044;-61
2021/06/29 06:47:44;;;;;;;3.90;2.97;;;;;;;21.79;61.24;98556.81;3604849;40;20050;-62
2021/06/29 06:50:12;;;;;;;3.70;3.20;;;;;;;21.86;60.99;98546.59;3604147;40;20420;-61
2021/06/29 06:52:40;;;;;;;3.55;3.10;;;;;;;21.94;60.47;98540.66;3603754;40;20083;-62
2021/06/29 06:55:09;;;;;;;3.47;3.00;;;;;;;21.98;60.43;98534.44;3602519;40;20044;-60
2021/06/29 06:57:37;;;;;;;4.25;3.28;;;;;;;21.99;60.70;98537.94;3602317;39;20087;-61
2021/06/29 07:00:06;;;;;;;5.82;2.92;;;;;;;22.10;60.45;98528.75;3602293;39;20055;-61
2021/06/29 07:02:34;;;;;;;5.65;3.60;;;;;;;22.16;59.90;98522.28;3602081;40;20420;-61
2021/06/29 07:05:05;;;;;;;3.60;3.00;;;;;;;22.21;59.88;98522.28;3603337;40;20066;-62
2021/06/29 07:07:33;;;;;;;3.20;2.90;;;;;;;22.20;59.67;98517.97;3602373;39;20088;-62
2021/06/29 07:10:01;;;;;;;4.90;3.13;;;;;;;22.20;59.50;98519.84;3601745;39;20402;-61
2021/06/29 07:12:28;;;;;;;5.03;3.30;;;;;;;22.30;59.32;98513.66;3602338;39;20039;-63
2021/06/29 07:14:56;;;;;;;3.63;3.00;;;;;;;22.31;59.16;98513.34;3602358;40;20064;-62
2021/06/29 07:17:24;;;;;;;6.25;3.47;;;;;;;22.37;58.83;98509.56;3601847;39;20068;-61
2021/06/29 07:19:53;;;;;;;3.85;3.15;;;;;;;22.34;58.60;98506.63;3602752;40;20032;-61
2021/06/29 07:22:22;;;;;;;4.20;3.50;;;;;;;22.39;58.49;98518.16;3602784;39;20054;-60
2021/06/29 07:24:49;;;;;;;3.75;2.90;;;;;;;22.35;57.59;98514.41;3603167;39;20309;-61
2021/06/29 07:27:17;;;;;;;4.05;2.60;;;;;;;22.36;57.90;98516.03;3602467;40;20029;-61
2021/06/29 07:29:45;;;;;;;5.22;2.60;;;;;;;22.40;57.15;98510.88;3602520;40;20050;-62
2021/06/29 07:32:13;;;;;;;3.75;2.35;;;;;;;22.33;56.77;98513.06;3602061;40;20046;-60
2021/06/29 07:34:41;;;;;;;3.97;2.65;;;;;;;22.43;56.61;98513.03;3600370;40;20052;-60
2021/06/29 07:37:08;;;;;;;2.30;2.10;;;;;;;22.60;56.11;98504.59;3599198;39;20051;-61
2021/06/29 07:39:37;;;;;;;3.13;1.77;;;;;;;22.73;55.38;98512.06;3599055;39;20080;-60
2021/06/29 07:42:06;;;;;;;5.65;2.47;;;;;;;22.70;55.53;98505.34;3598211;39;20396;-60
2021/06/29 07:44:33;;;;;;;2.47;2.05;;;;;;;22.73;54.89;98503.97;3599109;39;20083;-61
2021/06/29 07:47:01;;;;;;;3.88;2.50;;;;;;;22.88;55.00;98508.47;3597992;40;20476;-60
2021/06/29 07:49:32;;;;;;;4.85;2.55;;;;;;;22.98;54.75;98500.31;3599422;39;20049;-60
2021/06/29 07:52:01;;;;;;;4.60;2.20;;;;;;;22.94;54.38;98497.41;3599469;40;20542;-61
2021/06/29 07:54:28;;;;;;;3.70;2.90;;;;;;;22.98;54.39;98498.47;3599531;39;20048;-60
2021/06/29 07:56:57;;;;;;;3.33;2.45;;;;;;;23.13;54.06;98494.03;3598653;39;20047;-60
2021/06/29 07:59:26;;;;;;;7.47;1.90;;;;;;;23.13;52.97;98489.44;3598854;39;20025;-62
2021/06/29 08:01:53;;;;;;;3.88;2.13;;;;;;;23.14;53.18;98480.25;3599076;40;20050;-61
2021/06/29 08:04:21;;;;;;;6.22;3.08;;;;;;;23.27;53.57;98467.22;3599015;39;20044;-60
2021/06/29 08:06:49;;;;;;;3.40;1.80;;;;;;;23.16;51.99;98467.31;3597794;39;20386;-60
2021/06/29 08:09:17;;;;;;;4.00;1.90;;;;;;;22.97;52.25;98466.38;3598091;40;20080;-60
2021/06/29 08:12:05;;;;;;;2.03;1.35;;;;;;;22.95;50.98;98472.06;3597893;40;20374;-60
2021/06/29 08:14:34;;;;;;;2.88;1.27;;;;;;;23.04;50.23;98468.75;3598918;39;20149;-59
2021/06/29 08:17:02;;;;;;;3.60;1.33;;;;;;;23.17;49.48;98477.00;3598540;39;20044;-61
2021/06/29 08:19:30;;;;;;;1.55;1.40;;;;;;;23.16;49.30;98472.69;3598631;40;20055;-59
2021/06/29 08:21:58;;;;;;;2.13;1.17;;;;;;;23.17;48.96;98474.31;3598697;40;20075;-60
2021/06/29 08:24:26;;;;;;;1.50;1.40;;;;;;;23.20;48.49;98483.72;3598885;39;20044;-60
2021/06/29 08:26:54;;;;;;;1.83;1.73;;;;;;;23.06;47.24;98472.78;3599155;39;20055;-60
2021/06/29 08:29:23;;;;;;;2.03;1.60;;;;;;;22.93;48.88;98466.13;3599307;39;20032;-59
2021/06/29 08:31:51;;;;;;;3.53;1.77;;;;;;;22.98;48.97;98467.97;3599478;40;20055;-61
2021/06/29 08:34:18;;;;;;;3.58;1.50;;;;;;;23.02;49.50;98460.13;3599298;39;20084;-60
2021/06/29 08:36:46;;;;;;;1.10;1.10;;;;;;;23.11;47.58;98461.97;3599036;40;20084;-60
2021/06/29 08:39:15;;;;;;;3.30;1.35;;;;;;;23.16;47.83;98461.91;3599174;39;20048;-60
2021/06/29 08:41:43;;;;;;;1.85;1.45;;;;;;;23.34;48.84;98463.09;3599205;40;20044;-60
2021/06/29 08:44:11;;;;;;;3.63;1.48;;;;;;;23.54;48.35;98456.69;3598507;39;20076;-60
2021/06/29 08:46:42;;;;;;;5.93;2.10;;;;;;;23.70;47.75;98455.47;3599041;39;20044;-60
2021/06/29 08:49:12;;;;;;;3.97;1.90;;;;;;;23.56;47.33;98449.13;3599520;39;20044;-60
2021/06/29 08:51:50;;;;;;;2.85;1.88;;;;;;;23.46;47.53;98441.94;3599390;39;20305;-60
2021/06/29 08:54:21;;;;;;;3.97;2.13;;;;;;;23.36;47.47;98433.16;3600065;39;20021;-60
2021/06/29 08:56:48;;;;;;;3.70;2.22;;;;;;;23.31;48.14;98430.50;3599738;39;20048;-61
2021/06/29 08:59:16;;;;;;;2.20;1.60;;;;;;;23.45;48.46;98434.94;3599747;39;20058;-59
2021/06/29 09:01:45;;;;;;;2.53;1.60;;;;;;;23.42;48.42;98427.41;3598977;40;20114;-59
2021/06/29 09:04:13;;;;;;;5.55;2.95;;;;;;;23.54;47.96;98424.31;3600187;40;20129;-59
2021/06/29 09:06:43;;;;;;;1.50;1.40;;;;;;;23.46;47.31;98417.66;3599854;39;20048;-60
2021/06/29 09:09:26;;;;;;;1.88;1.60;;;;;;;23.51;48.11;98408.69;3600053;39;20054;-60
2021/06/29 09:11:55;;;;;;;2.05;1.45;;;;;;;23.57;48.27;98404.06;3599827;39;20055;-60
2021/06/29 09:14:28;;;;;;;5.32;2.08;;;;;;;23.60;48.82;98392.72;3600132;39;20079;-60
2021/06/29 09:17:18;;;;;;;3.05;1.52;;;;;;;23.80;48.48;98395.22;3599838;40;20358;-60
2021/06/29 09:19:46;;;;;;;1.80;1.60;;;;;;;23.93;48.11;98393.69;3599961;39;20337;-60
2021/06/29 09:22:28;;;;;;;2.38;1.90;;;;;;;24.01;48.25;98393.03;3599661;39;20070;-58
2021/06/29 09:24:57;;;;;;;3.65;1.55;;;;;;;24.13;47.78;98389.94;3598819;39;20052;-58
2021/06/29 09:27:41;;;;;;;1.60;1.50;;;;;;;24.19;47.73;98386.03;3599457;39;20328;-59
2021/06/29 09:30:29;;;;;;;2.97;1.80;;;;;;;24.25;47.65;98375.97;3600097;39;20099;-58
2021/06/29 09:33:01;;;;;;;1.45;1.35;;;;;;;24.16;47.74;98379.31;3600044;40;20092;-58
2021/06/29 09:35:29;;;;;;;1.98;1.73;;;;;;;23.95;47.37;98370.69;3599802;39;20047;-58
2021/06/29 09:38:00;;;;;;;1.55;1.38;;;;;;;23.97;47.46;98379.31;3599504;39;20048;-59
2021/06/29 09:40:29;;;;;;;1.88;1.52;;;;;;;23.97;46.99;98378.53;3599647;40;20129;-58
2021/06/29 09:43:12;;;;;;;1.55;1.45;;;;;;;23.72;47.70;98371.56;3599595;39;20050;-58
2021/06/29 09:45:44;;;;;;;1.60;1.40;;;;;;;23.95;47.19;98354.50;3601128;39;20047;-58
2021/06/29 09:48:16;;;;;;;1.73;1.63;;;;;;;24.16;46.87;98352.31;3603900;40;20282;-59
2021/06/29 09:50:48;;;;;;;4.00;2.25;;;;;;;24.19;46.59;98348.22;3601551;39;20047;-58
2021/06/29 09:53:24;;;;;;;2.33;1.42;;;;;;;23.90;46.30;98357.28;3601610;39;20037;-58
2021/06/29 09:55:54;;;;;;;3.55;2.42;;;;;;;23.94;46.19;98358.28;3603988;39;20096;-58
2021/06/29 09:58:23;;;;;;;2.00;1.70;;;;;;;24.04;46.68;98360.03;3604872;39;20051;-58
2021/06/29 10:00:54;;;;;;;1.55;1.45;;;;;;;24.36;46.04;98361.22;3604091;40;20024;-59
2021/06/29 10:03:28;;;;;;;2.10;1.85;;;;;;;24.70;45.16;98363.69;3603906;39;20051;-59
2021/06/29 10:05:59;;;;;;;1.70;1.60;;;;;;;24.96;44.71;98366.75;3603429;39;20088;-60
2021/06/29 10:08:32;;;;;;;1.80;1.70;;;;;;;25.08;43.73;98360.88;3601260;39;20396;-60
2021/06/29 10:11:05;;;;;;;3.63;2.17;;;;;;;24.96;43.95;98361.34;3600166;40;20052;-62
2021/06/29 10:13:35;;;;;;;4.38;2.08;;;;;;;24.95;43.91;98365.16;3600427;39;20055;-60
2021/06/29 10:16:05;;;;;;;1.58;1.38;;;;;;;24.89;43.53;98372.53;3600440;39;20036;-61
2021/06/29 10:18:38;;;;;;;2.38;1.73;;;;;;;24.99;43.26;98368.88;3600525;39;20044;-61
2021/06/29 10:21:17;;;;;;;2.35;1.77;;;;;;;25.14;43.13;98371.31;3599883;39;20032;-60
2021/06/29 10:23:45;;;;;;;2.50;1.80;;;;;;;25.27;42.62;98372.47;3599883;40;20052;-60
2021/06/29 10:26:13;;;;;;;3.60;1.63;;;;;;;25.47;41.87;98373.94;3599389;39;20047;-59
2021/06/29 10:28:43;;;;;;;2.15;1.75;;;;;;;25.44;42.05;98383.50;3599728;39;20077;-60
2021/06/29 10:31:17;;;;;;;2.72;1.80;;;;;;;25.35;42.64;98369.06;3599662;39;20052;-60
2021/06/29 10:33:47;;;;;;;2.55;1.80;;;;;;;25.38;42.51;98373.06;3598515;39;20047;-59
2021/06/29 10:36:19;;;;;;;3.97;2.28;;;;;;;25.29;41.86;98375.66;3599113;39;20048;-60
2021/06/29 10:38:47;;;;;;;1.70;1.60;;;;;;;25.14;42.62;98370.53;3599639;39;20039;-60
2021/06/29 10:41:16;;;;;;;2.25;1.45;;;;;;;25.02;42.69;98349.34;3599403;39;20052;-61
2021/06/29 10:43:44;;;;;;;3.15;2.50;;;;;;;24.99;43.04;98349.16;3599631;40;20050;-60
2021/06/29 10:46:35;;;;;;;1.60;1.48;;;;;;;24.91;43.37;98348.72;3599235;39;20052;-60
2021/06/29 10:49:31;;;;;;;2.53;1.98;;;;;;;25.06;43.05;98344.13;3599186;39;20044;-59
2021/06/29 10:52:03;;;;;;;3.97;3.25;;;;;;;25.10;43.00;98343.25;3599358;39;20088;-60
2021/06/29 10:54:49;;;;;;;2.97;2.78;;;;;;;25.12;42.95;98349.19;3599299;39;20128;-61
2021/06/29 10:57:19;;;;;;;1.65;1.50;;;;;;;25.14;42.89;98343.47;3598945;39;20044;-60
2021/06/29 10:59:49;;;;;;;1.70;1.55;;;;;;;25.29;43.36;98334.28;3598391;40;20357;-60
2021/06/29 11:02:31;;;;;;;2.78;2.15;;;;;;;25.54;43.18;98330.25;3598983;39;20071;-60
2021/06/29 11:05:02;;;;;;;4.80;2.60;;;;;;;25.69;42.50;98325.34;3599441;40;20052;-60
2021/06/29 11:07:46;;;;;;;2.40;1.65;;;;;;;25.72;42.00;98329.34;3598985;40;20393;-60
2021/06/29 11:10:27;;;;;;;1.48;1.38;;;;;;;25.68;41.78;98328.38;3599178;39;20047;-60
2021/06/29 11:12:58;;;;;;;2.92;1.25;;;;;;;25.52;41.92;98311.63;3599421;39;20452;-59
2021/06/29 11:15:57;;;;;;;2.80;1.55;;;;;;;25.38;42.18;98314.34;3598021;39;20044;-59
2021/06/29 11:18:49;;;;;;;3.83;1.75;;;;;;;25.37;42.64;98330.88;3558766;40;20061;-61
2021/06/29 11:24:40;;;;;;;1.83;1.70;;;;;;;24.92;43.67;98328.69;3628241;39;20386;-60
2021/06/29 11:27:08;;;;;;;2.63;1.27;;;;;;;24.61;44.48;98323.00;3628089;39;20051;-61
2021/06/29 11:29:41;;;;;;;3.15;1.60;;;;;;;24.59;44.68;98319.81;3627981;39;20374;-62
2021/06/29 11:32:28;;;;;;;2.20;2.00;;;;;;;24.44;44.82;98306.56;3628338;39;20042;-62
2021/06/29 11:35:16;;;;;;;1.85;1.40;;;;;;;24.29;45.37;98299.47;3628114;39;20069;-61
2021/06/29 11:38:04;;;;;;;1.83;1.30;;;;;;;24.07;45.68;98289.28;3626655;39;20165;-61
2021/06/29 11:40:33;;;;;;;1.20;1.15;;;;;;;23.92;46.18;98302.97;3627356;39;20043;-59
2021/06/29 11:43:12;;;;;;;1.92;1.50;;;;;;;23.79;46.83;98296.41;3627652;39;20393;-60
2021/06/29 11:45:40;;;;;;;3.20;1.30;;;;;;;23.64;47.54;98283.13;3627351;39;20049;-59
2021/06/29 11:48:39;;;;;;;1.60;1.50;;;;;;;23.52;48.28;98288.94;3655594;22;20877;-67
2021/06/29 11:51:07;;;;;;;2.50;1.50;;;;;;;23.29;49.09;98301.34;3586433;40;20049;-66
2021/06/29 11:53:39;;;;;;;1.70;1.60;;;;;;;23.16;50.07;98315.53;3586633;40;20349;-65